Time;durP1;ratioP1;P1;durP2;ratioP2;P2;SDS_P1;SDS_P2;PMS_P1;PMS_P2;Temp;Humidity;BMP_temperature;BMP_pressure;BME280_temperature;BME280_humidity;BME280_pressure;Samples;Min_cycle;Max_cycle;Signal;HPM_P1;HPM_P2
2021/07/27 00:00:09;;;;;;;102.45;36.08;;;;;;;16.97;86.52;101243.78;4953263;28;20046;-49
2021/07/27 00:02:34;;;;;;;90.55;34.40;;;;;;;17.01;86.40;101250.81;4950461;28;20027;-51
2021/07/27 00:04:59;;;;;;;87.15;33.80;;;;;;;17.06;86.33;101245.50;4949914;28;20027;-47
2021/07/27 00:07:25;;;;;;;81.70;32.38;;;;;;;17.09;86.16;101233.16;4953032;28;20053;-52
2021/07/27 00:09:50;;;;;;;84.18;32.85;;;;;;;17.13;86.07;101239.31;4953287;28;20475;-51
2021/07/27 00:12:15;;;;;;;80.90;32.88;;;;;;;17.15;86.00;101237.50;4949256;28;20125;-51
2021/07/27 00:14:41;;;;;;;80.65;32.15;;;;;;;17.15;85.86;101237.50;4946709;28;20039;-49
2021/07/27 00:17:06;;;;;;;78.20;31.55;;;;;;;17.16;85.72;101226.97;4951855;28;20446;-51
2021/07/27 00:19:31;;;;;;;72.40;30.65;;;;;;;17.19;85.45;101226.09;4951315;28;20898;-48
2021/07/27 00:21:57;;;;;;;78.10;32.83;;;;;;;17.17;85.81;101235.75;4949396;28;20700;-51
2021/07/27 00:24:26;;;;;;;76.88;32.25;;;;;;;17.15;85.67;101226.97;4950198;28;20566;-53
2021/07/27 00:26:51;;;;;;;78.90;30.90;;;;;;;17.14;85.33;101231.38;4945902;28;20031;-49
2021/07/27 00:29:17;;;;;;;78.22;33.30;;;;;;;17.07;85.26;101226.19;4952530;28;20030;-51
2021/07/27 00:31:42;;;;;;;73.88;30.52;;;;;;;17.03;85.67;101228.81;4948745;28;20023;-53
2021/07/27 00:34:08;;;;;;;86.78;34.15;;;;;;;16.98;85.66;101224.47;4952052;28;20503;-51
2021/07/27 00:36:33;;;;;;;79.72;32.03;;;;;;;16.98;85.61;101225.34;4945171;28;20038;-49
2021/07/27 00:38:58;;;;;;;81.68;32.88;;;;;;;17.01;85.70;101224.47;4950005;28;20085;-50
2021/07/27 00:41:24;;;;;;;85.80;33.30;;;;;;;17.01;85.60;101227.09;4949264;28;20061;-52
2021/07/27 00:43:49;;;;;;;85.82;32.45;;;;;;;16.97;85.94;101236.75;4949081;28;20045;-52
2021/07/27 00:46:14;;;;;;;84.80;32.63;;;;;;;16.96;85.64;101227.09;4950595;28;20110;-49
2021/07/27 00:48:40;;;;;;;88.68;33.15;;;;;;;16.93;85.57;101215.75;4946263;28;20097;-48
2021/07/27 00:51:05;;;;;;;80.70;32.40;;;;;;;16.88;85.93;101215.78;4950875;28;20125;-48
2021/07/27 00:53:31;;;;;;;94.70;34.60;;;;;;;16.85;85.93;101215.78;4950417;28;20084;-50
2021/07/27 00:55:57;;;;;;;86.88;32.50;;;;;;;16.82;85.65;101210.56;4950042;28;20379;-48
2021/07/27 00:58:22;;;;;;;80.00;30.63;;;;;;;16.76;86.27;101212.34;4949526;28;20031;-50
2021/07/27 01:00:47;;;;;;;94.50;35.28;;;;;;;16.71;86.01;101215.00;4952204;28;20077;-49
2021/07/27 01:03:14;;;;;;;109.80;36.10;;;;;;;16.67;86.26;101215.91;4951840;28;20121;-48
2021/07/27 01:05:39;;;;;;;91.88;33.15;;;;;;;16.66;86.09;101208.88;4947995;28;20976;-51
2021/07/27 01:08:05;;;;;;;107.93;36.75;;;;;;;16.64;85.86;101205.41;4951114;28;20479;-52
2021/07/27 01:10:30;;;;;;;106.15;35.95;;;;;;;16.59;86.34;101208.03;4951020;28;20110;-49
2021/07/27 01:12:56;;;;;;;127.55;40.67;;;;;;;16.57;86.28;101206.28;4949622;28;20534;-52
2021/07/27 01:15:23;;;;;;;93.40;31.35;;;;;;;16.55;86.03;101202.78;4948947;28;20490;-52
2021/07/27 01:17:50;;;;;;;119.40;39.70;;;;;;;16.53;86.32;101202.78;4949294;28;20105;-48
2021/07/27 01:39:26;;;;;;;128.48;42.60;;;;;;;16.49;86.87;101190.53;4950371;28;20092;-50
2021/07/27 01:42:05;;;;;;;123.68;40.08;;;;;;;16.47;86.81;101192.28;4952271;28;20061;-50
2021/07/27 01:44:31;;;;;;;109.20;36.78;;;;;;;16.45;86.38;101186.19;4943685;28;20757;-52
2021/07/27 01:46:57;;;;;;;139.02;42.55;;;;;;;16.42;86.56;101180.03;4954408;28;20042;-51
2021/07/27 01:49:22;;;;;;;140.10;43.67;;;;;;;16.38;86.91;101181.84;4954819;28;20124;-49
2021/07/27 01:51:48;;;;;;;114.65;38.67;;;;;;;16.35;86.58;101194.09;4954329;28;20043;-52
2021/07/27 01:54:16;;;;;;;122.82;38.05;;;;;;;16.30;86.57;101180.97;4954472;28;20506;-48
2021/07/27 01:56:44;;;;;;;135.68;40.35;;;;;;;16.29;86.70;101183.63;4966042;28;20062;-49
2021/07/27 01:59:09;;;;;;;130.60;40.72;;;;;;;16.27;86.83;101183.66;4951865;28;20078;-47
2021/07/27 02:01:35;;;;;;;157.75;45.75;;;;;;;16.27;87.01;101181.00;4949833;28;20027;-50
2021/07/27 02:04:00;;;;;;;175.95;47.42;;;;;;;16.29;87.39;101173.97;4953276;28;20537;-53
2021/07/27 02:06:25;;;;;;;150.20;41.50;;;;;;;16.31;87.20;101174.84;4953212;28;20027;-49
2021/07/27 02:08:53;;;;;;;164.23;43.00;;;;;;;16.31;87.22;101171.34;4951634;28;20026;-52
2021/07/27 02:11:24;;;;;;;139.43;39.70;;;;;;;16.29;87.05;101178.34;4953229;28;20034;-47
2021/07/27 02:13:55;;;;;;;185.38;49.40;;;;;;;16.28;87.13;101174.88;4950618;28;20566;-50
2021/07/27 02:16:20;;;;;;;180.70;46.92;;;;;;;16.30;86.96;101178.34;4950185;28;20027;-47
2021/07/27 02:18:46;;;;;;;168.23;44.63;;;;;;;16.31;87.14;101173.97;4954026;28;20082;-48
2021/07/27 02:21:11;;;;;;;186.95;47.63;;;;;;;16.45;87.20;101177.41;4953433;28;20035;-51
2021/07/27 02:23:37;;;;;;;205.70;52.58;;;;;;;16.36;87.20;101170.44;4947773;28;20117;-50
2021/07/27 02:26:04;;;;;;;173.02;44.40;;;;;;;16.38;87.24;101167.78;4950963;28;20649;-53
2021/07/27 02:28:31;;;;;;;210.77;53.50;;;;;;;16.38;87.47;101170.44;4955784;28;20035;-48
2021/07/27 02:30:59;;;;;;;185.93;46.67;;;;;;;16.42;87.50;101169.50;4950931;28;20476;-54
2021/07/27 02:33:25;;;;;;;161.43;43.08;;;;;;;16.43;87.33;101176.53;4950413;28;20027;-47
2021/07/27 02:35:52;;;;;;;183.93;46.75;;;;;;;16.42;87.02;101172.16;4952512;28;20081;-49
2021/07/27 02:38:18;;;;;;;197.20;48.80;;;;;;;16.43;87.11;101176.53;4952828;28;20023;-50
2021/07/27 02:40:43;;;;;;;199.15;51.75;;;;;;;16.42;87.38;101169.50;4950445;28;20050;-49
2021/07/27 02:43:10;;;;;;;200.32;51.50;;;;;;;16.41;87.42;101179.16;4953825;28;20423;-50
2021/07/27 02:45:36;;;;;;;191.55;47.60;;;;;;;16.42;87.25;101180.03;4952317;28;20035;-50
2021/07/27 02:48:05;;;;;;;194.88;48.53;;;;;;;16.36;87.36;101175.69;4951966;28;20112;-53
2021/07/27 02:50:36;;;;;;;162.30;42.00;;;;;;;16.39;86.97;101193.22;4951693;28;20084;-49
2021/07/27 02:53:02;;;;;;;193.00;51.42;;;;;;;16.31;87.29;101180.09;4954359;28;20034;-48
2021/07/27 02:55:27;;;;;;;187.38;49.22;;;;;;;16.29;87.40;101173.97;4952709;28;20728;-49
2021/07/27 02:57:53;;;;;;;191.77;50.60;;;;;;;16.32;87.13;101179.22;4951918;28;20381;-50
2021/07/27 03:00:19;;;;;;;190.70;49.28;;;;;;;16.27;87.05;101178.38;4953650;28;20483;-49
2021/07/27 03:02:45;;;;;;;188.68;49.00;;;;;;;16.22;87.24;101170.50;4950527;28;21449;-50
2021/07/27 03:05:13;;;;;;;156.57;43.58;;;;;;;16.22;87.22;101167.03;4950067;28;20030;-51
2021/07/27 03:10:17;;;;;;;159.40;45.53;;;;;;;16.15;87.21;101160.91;4952604;28;20097;-50
2021/07/27 03:12:43;;;;;;;156.95;42.72;;;;;;;16.11;86.92;101160.91;4953272;28;20045;-52
2021/07/27 03:15:09;;;;;;;169.20;48.45;;;;;;;16.10;87.21;101160.03;4949619;28;20023;-50
2021/07/27 03:17:34;;;;;;;154.75;44.17;;;;;;;16.09;87.25;101153.06;4950400;28;20043;-53
2021/07/27 03:20:03;;;;;;;147.77;43.65;;;;;;;16.16;86.89;101160.00;4950220;28;20063;-51
2021/07/27 03:22:28;;;;;;;169.25;47.90;;;;;;;16.19;86.78;101152.09;4952256;28;20094;-49
2021/07/27 03:24:53;;;;;;;141.88;43.25;;;;;;;16.08;86.95;101153.06;4955357;28;20051;-50
2021/07/27 03:27:19;;;;;;;161.13;47.58;;;;;;;16.03;87.01;101144.31;4950509;28;21363;-51
2021/07/27 03:29:44;;;;;;;136.75;43.53;;;;;;;16.01;87.00;101146.94;4948103;28;20286;-51
2021/07/27 03:32:10;;;;;;;158.32;46.50;;;;;;;16.00;87.15;101149.56;4950059;28;20435;-50
2021/07/27 03:34:35;;;;;;;139.55;42.53;;;;;;;15.97;87.27;101146.97;4950145;28;20625;-48
2021/07/27 03:37:00;;;;;;;136.15;40.83;;;;;;;15.97;86.78;101141.72;4949825;28;20031;-48
2021/07/27 03:39:26;;;;;;;135.32;40.13;;;;;;;15.94;86.87;101145.22;4953593;28;20026;-47
2021/07/27 03:41:51;;;;;;;133.05;39.20;;;;;;;15.94;86.84;101153.09;4951909;28;20033;-50
2021/07/27 03:44:16;;;;;;;144.23;41.97;;;;;;;15.91;86.90;101152.25;4952188;28;20391;-51
2021/07/27 03:46:47;;;;;;;138.38;40.13;;;;;;;15.89;86.94;101144.38;4952923;28;20102;-50
2021/07/27 03:49:13;;;;;;;142.20;43.65;;;;;;;15.89;87.12;101143.50;4951062;28;20395;-51
2021/07/27 03:51:38;;;;;;;142.68;43.63;;;;;;;15.92;87.07;101154.00;4952127;28;20060;-49
2021/07/27 03:54:04;;;;;;;140.73;42.08;;;;;;;15.93;87.06;101158.34;4950866;28;20105;-51
2021/07/27 03:56:30;;;;;;;144.13;42.70;;;;;;;15.95;87.27;101165.38;4951085;28;20089;-51
2021/07/27 03:58:56;;;;;;;163.02;46.55;;;;;;;16.02;87.37;101163.59;4948438;28;20038;-48
2021/07/27 04:01:21;;;;;;;166.90;47.03;;;;;;;16.09;87.63;101167.97;4951355;28;20373;-51
2021/07/27 04:03:46;;;;;;;151.27;47.33;;;;;;;16.16;87.40;101170.53;4967716;28;20415;-49
2021/07/27 04:06:13;;;;;;;145.05;45.97;;;;;;;16.22;87.23;101167.88;4948134;28;20045;-51
2021/07/27 04:08:38;;;;;;;144.25;45.53;;;;;;;16.25;87.24;101159.09;4951582;28;20027;-50
2021/07/27 04:11:04;;;;;;;130.23;44.03;;;;;;;16.26;86.92;101159.97;4953655;28;20034;-50
2021/07/27 04:13:31;;;;;;;131.65;44.30;;;;;;;16.29;86.90;101163.44;4962290;28;20060;-50
2021/07/27 04:16:01;;;;;;;122.22;42.38;;;;;;;16.35;86.96;101155.53;4948716;28;20030;-49
2021/07/27 04:18:26;;;;;;;121.90;41.50;;;;;;;16.39;86.51;101164.28;4948856;28;20037;-49
2021/07/27 04:21:02;;;;;;;122.72;42.78;;;;;;;16.41;86.32;101159.88;4951014;28;20039;-51
2021/07/27 04:23:27;;;;;;;117.05;42.40;;;;;;;16.40;85.98;101151.13;4950756;28;20027;-51
2021/07/27 04:25:53;;;;;;;113.43;41.95;;;;;;;16.45;85.89;101159.00;4949802;28;20462;-52
2021/07/27 04:28:19;;;;;;;106.65;41.67;;;;;;;16.54;85.09;101146.63;4950134;28;20054;-53
2021/07/27 04:30:44;;;;;;;111.38;43.80;;;;;;;16.62;85.03;101136.97;4950913;28;20030;-49
2021/07/27 04:33:10;;;;;;;100.70;40.58;;;;;;;16.65;84.94;101141.31;4948747;28;20768;-50
2021/07/27 04:35:38;;;;;;;98.25;39.60;;;;;;;16.60;84.90;101146.63;4949662;28;20046;-52
2021/07/27 04:38:04;;;;;;;93.43;39.17;;;;;;;16.60;84.77;101138.72;4952613;28;20125;-53
2021/07/27 04:40:29;;;;;;;84.40;38.47;;;;;;;16.63;84.51;101138.72;4948025;28;20668;-49
2021/07/27 04:42:54;;;;;;;82.72;37.92;;;;;;;16.67;84.16;101149.22;4951243;28;20568;-52
2021/07/27 04:45:20;;;;;;;84.40;37.83;;;;;;;16.73;83.68;101155.31;4946910;28;20074;-52
2021/07/27 04:47:45;;;;;;;75.90;37.10;;;;;;;16.78;83.78;101155.25;4952044;28;20050;-53
2021/07/27 04:50:10;;;;;;;75.90;36.47;;;;;;;16.83;83.78;101159.59;4950963;28;20054;-52
2021/07/27 04:52:37;;;;;;;74.32;35.53;;;;;;;16.97;83.05;101156.88;4951798;28;20384;-52
2021/07/27 04:55:03;;;;;;;80.00;37.08;;;;;;;17.03;82.96;101156.81;4951931;28;20033;-48
2021/07/27 04:57:31;;;;;;;70.78;35.50;;;;;;;16.94;82.99;101154.28;4947695;28;20491;-52
2021/07/27 04:59:57;;;;;;;67.28;33.78;;;;;;;16.95;83.13;101148.13;4949123;28;20390;-48
2021/07/27 05:02:22;;;;;;;70.88;34.17;;;;;;;16.98;83.66;101156.00;4947553;28;20034;-48
2021/07/27 05:04:48;;;;;;;76.65;36.25;;;;;;;16.99;83.61;101147.22;4948309;28;20015;-49
2021/07/27 05:07:13;;;;;;;66.82;33.05;;;;;;;17.02;82.73;101152.44;4949159;28;20118;-48
2021/07/27 05:09:38;;;;;;;68.70;34.25;;;;;;;17.11;83.04;101143.59;4951786;28;20046;-48
2021/07/27 05:12:04;;;;;;;62.33;32.22;;;;;;;17.18;82.99;101140.91;4948064;28;20042;-50
2021/07/27 05:14:30;;;;;;;60.92;32.03;;;;;;;17.27;82.40;101143.41;4950817;28;20042;-54
2021/07/27 05:16:56;;;;;;;58.72;30.88;;;;;;;17.30;81.88;101135.50;4950061;28;20126;-52
2021/07/27 05:19:22;;;;;;;62.35;32.08;;;;;;;17.40;81.83;101133.63;4948237;28;20039;-50
2021/07/27 05:21:50;;;;;;;55.45;29.90;;;;;;;17.56;81.23;101126.44;4956529;28;20039;-48
2021/07/27 05:24:15;;;;;;;55.28;29.10;;;;;;;17.68;80.79;101129.84;4952663;28;20042;-51
2021/07/27 05:26:40;;;;;;;49.03;27.15;;;;;;;17.84;80.76;101126.13;4954280;28;20411;-51
2021/07/27 05:29:05;;;;;;;48.30;27.27;;;;;;;17.89;79.19;101131.34;4949807;28;20070;-49
2021/07/27 05:31:31;;;;;;;49.33;28.67;;;;;;;17.90;79.32;101129.59;4953214;28;20027;-52
2021/07/27 05:33:57;;;;;;;50.53;28.00;;;;;;;17.86;79.08;101141.06;4957310;28;20640;-53
2021/07/27 05:36:23;;;;;;;52.30;29.95;;;;;;;17.85;79.18;101134.94;4951801;28;20427;-48
2021/07/27 05:38:48;;;;;;;50.25;29.10;;;;;;;17.81;78.53;101136.72;4957563;28;20089;-52
2021/07/27 05:41:13;;;;;;;53.95;30.20;;;;;;;17.90;78.29;101133.09;4951381;28;20019;-47
2021/07/27 05:43:38;;;;;;;53.10;29.40;;;;;;;17.77;78.97;101137.66;4956555;28;20035;-51
2021/07/27 05:46:04;;;;;;;56.03;29.50;;;;;;;17.72;79.00;101128.03;4950862;28;20031;-52
2021/07/27 05:48:29;;;;;;;50.50;27.67;;;;;;;17.77;79.26;101139.41;4953879;28;20293;-48
2021/07/27 05:50:54;;;;;;;46.35;26.25;;;;;;;17.86;78.75;101135.81;4954773;28;20034;-51
2021/07/27 05:53:20;;;;;;;43.08;24.67;;;;;;;17.77;78.25;101142.03;4966549;28;20624;-48
2021/07/27 05:55:45;;;;;;;43.15;24.63;;;;;;;17.81;78.23;101133.19;4955292;28;20027;-48
2021/07/27 05:58:10;;;;;;;45.25;25.20;;;;;;;17.84;78.19;101135.81;4954186;28;20036;-52
2021/07/27 06:00:36;;;;;;;42.85;24.23;;;;;;;17.89;79.01;101141.91;4956234;28;20034;-51
2021/07/27 06:03:05;;;;;;;48.38;25.35;;;;;;;18.06;78.17;101131.13;4954496;28;20419;-51
2021/07/27 06:05:30;;;;;;;39.17;24.13;;;;;;;18.10;76.96;101141.63;4951860;28;20054;-52
2021/07/27 06:07:56;;;;;;;44.10;25.20;;;;;;;18.16;76.44;101141.56;4951481;28;20039;-54
2021/07/27 06:10:21;;;;;;;37.75;23.52;;;;;;;18.27;75.17;101138.75;4951426;28;20043;-47
2021/07/27 06:12:47;;;;;;;41.92;24.23;;;;;;;18.24;75.43;101136.16;4953935;28;20046;-47
2021/07/27 06:15:12;;;;;;;37.42;22.00;;;;;;;18.21;75.31;101134.44;4951723;28;20039;-50
2021/07/27 06:17:37;;;;;;;36.88;22.40;;;;;;;18.35;75.80;101134.25;4951070;28;20371;-49
2021/07/27 06:20:03;;;;;;;40.17;22.27;;;;;;;18.50;75.97;101135.78;4947435;28;20097;-53
2021/07/27 06:22:29;;;;;;;32.83;20.13;;;;;;;18.72;75.54;101131.09;4949453;28;20226;-52
2021/07/27 06:24:55;;;;;;;29.63;18.77;;;;;;;19.08;73.55;101127.84;4948180;28;20031;-48
2021/07/27 06:27:20;;;;;;;35.38;19.92;;;;;;;19.23;73.93;101130.19;4948471;28;20415;-50
2021/07/27 06:29:46;;;;;;;34.22;18.98;;;;;;;19.27;73.27;101136.31;4950536;28;20039;-49
2021/07/27 06:32:11;;;;;;;30.42;17.25;;;;;;;19.23;71.70;101130.19;4951831;28;20031;-54
2021/07/27 06:34:37;;;;;;;30.80;16.50;;;;;;;19.38;72.83;101129.94;4951835;28;20018;-49
2021/07/27 06:37:02;;;;;;;25.83;15.63;;;;;;;19.46;70.82;101129.78;4937563;28;20038;-50
2021/07/27 06:39:29;;;;;;;28.00;15.25;;;;;;;19.34;71.90;101143.22;4948495;28;20157;-50
2021/07/27 06:41:55;;;;;;;28.90;15.85;;;;;;;19.43;72.02;101143.94;4936828;28;20312;-50
2021/07/27 06:44:21;;;;;;;28.23;15.80;;;;;;;19.76;71.28;101144.22;4946046;28;20806;-49
2021/07/27 06:46:47;;;;;;;25.63;14.85;;;;;;;20.29;70.53;101148.38;4954408;28;20139;-49
2021/07/27 06:49:12;;;;;;;23.23;14.23;;;;;;;21.29;68.23;101142.44;4952856;28;20027;-50
2021/07/27 06:51:38;;;;;;;19.85;12.88;;;;;;;22.18;64.02;101139.06;4951259;28;20024;-48
2021/07/27 06:54:03;;;;;;;24.58;13.32;;;;;;;22.36;62.50;101143.81;4954037;28;20839;-51
2021/07/27 06:56:28;;;;;;;22.35;12.80;;;;;;;22.25;62.14;101143.28;4952242;28;20082;-47
2021/07/27 06:58:54;;;;;;;21.20;12.95;;;;;;;22.05;64.17;101135.91;4949391;28;20099;-50
2021/07/27 07:01:19;;;;;;;19.30;12.38;;;;;;;22.03;62.45;101148.34;4947540;28;20038;-52
2021/07/27 07:03:45;;;;;;;20.20;13.00;;;;;;;21.90;63.64;101144.25;4949794;28;20026;-52
2021/07/27 07:06:12;;;;;;;20.48;12.52;;;;;;;21.97;63.87;101142.34;4951201;28;20081;-51
2021/07/27 07:08:38;;;;;;;19.25;12.57;;;;;;;21.74;65.38;101150.94;4950737;28;20135;-48
2021/07/27 07:11:04;;;;;;;21.48;13.02;;;;;;;21.36;65.64;101139.59;4962443;28;20090;-50
2021/07/27 07:13:31;;;;;;;22.67;13.55;;;;;;;21.30;68.18;101147.72;4950156;28;20464;-48
2021/07/27 07:15:56;;;;;;;23.20;13.63;;;;;;;21.07;67.78;101147.41;4950444;28;20034;-49
2021/07/27 07:18:22;;;;;;;25.38;14.00;;;;;;;21.15;68.34;101141.91;4949101;28;20035;-49
2021/07/27 07:20:52;;;;;;;20.33;13.02;;;;;;;21.28;67.18;101146.03;4967464;28;20034;-53
2021/07/27 07:23:36;;;;;;;22.95;13.57;;;;;;;21.45;66.56;101151.75;4947715;28;20345;-54
2021/07/27 07:26:06;;;;;;;20.80;13.60;;;;;;;21.22;66.10;101154.16;4950513;28;20583;-54
2021/07/27 07:28:31;;;;;;;21.30;14.25;;;;;;;21.02;68.35;101158.13;4947588;28;20054;-51
2021/07/27 07:30:57;;;;;;;20.85;14.18;;;;;;;20.89;68.32;101161.13;4950733;28;20725;-51
2021/07/27 07:33:22;;;;;;;22.52;14.68;;;;;;;20.81;68.69;101158.66;4949316;28;20483;-50
2021/07/27 07:35:48;;;;;;;22.10;13.93;;;;;;;20.70;69.40;101159.81;4948375;28;20035;-50
2021/07/27 07:38:13;;;;;;;22.90;14.60;;;;;;;20.59;69.64;101150.34;4947747;28;20030;-51
2021/07/27 07:40:39;;;;;;;22.20;14.45;;;;;;;20.54;69.88;101159.31;4950843;28;20035;-50
2021/07/27 07:43:08;;;;;;;21.45;14.95;;;;;;;20.60;69.80;101159.19;4950980;28;20411;-47
2021/07/27 07:45:33;;;;;;;23.98;15.40;;;;;;;20.64;71.04;101160.84;4949397;28;20294;-52
2021/07/27 07:47:59;;;;;;;25.02;14.77;;;;;;;20.51;71.78;101156.72;4965788;28;20425;-49
2021/07/27 07:50:28;;;;;;;21.90;15.52;;;;;;;20.49;70.25;101155.91;4948774;28;20026;-50
2021/07/27 07:53:01;;;;;;;25.35;15.63;;;;;;;20.48;71.09;101155.03;4948726;28;20411;-51
2021/07/27 07:55:28;;;;;;;29.05;16.90;;;;;;;20.47;71.09;101148.00;4963375;28;20041;-49
2021/07/27 07:57:54;;;;;;;24.52;15.90;;;;;;;20.64;71.04;101148.47;4948415;28;20050;-49
2021/07/27 08:00:19;;;;;;;28.25;15.98;;;;;;;20.78;69.78;101139.31;4952332;28;20035;-49
2021/07/27 08:02:45;;;;;;;27.00;16.27;;;;;;;20.94;69.56;101148.63;4949565;28;20561;-48
2021/07/27 08:05:10;;;;;;;28.02;16.75;;;;;;;20.93;68.92;101146.88;4947595;28;20521;-52
2021/07/27 08:07:36;;;;;;;29.75;18.33;;;;;;;20.76;69.72;101154.38;4942628;28;20077;-49
2021/07/27 08:10:01;;;;;;;28.42;17.40;;;;;;;21.03;68.48;101143.09;4946930;28;20062;-49
2021/07/27 08:12:26;;;;;;;33.72;18.35;;;;;;;20.92;68.13;101146.00;4947734;28;20471;-51
2021/07/27 08:14:52;;;;;;;32.78;18.23;;;;;;;20.88;69.29;101149.66;4947777;28;20031;-50
2021/07/27 08:17:17;;;;;;;27.30;17.33;;;;;;;20.77;70.44;101151.69;4949196;28;20030;-50
2021/07/27 08:19:42;;;;;;;27.95;18.88;;;;;;;20.75;69.28;101161.44;4949424;28;20042;-51
2021/07/27 08:22:08;;;;;;;35.67;20.08;;;;;;;20.79;69.11;101151.66;4951202;28;20490;-52
2021/07/27 08:24:35;;;;;;;35.60;20.58;;;;;;;20.67;71.85;101145.72;4946896;28;20058;-50
2021/07/27 08:27:01;;;;;;;35.35;19.70;;;;;;;20.77;70.25;101154.34;4948819;28;20043;-49
2021/07/27 08:29:27;;;;;;;34.53;19.77;;;;;;;20.79;70.48;101154.31;4952996;28;20713;-47
2021/07/27 08:31:53;;;;;;;30.55;19.52;;;;;;;20.89;70.02;101150.53;4948468;28;20042;-48
2021/07/27 08:34:19;;;;;;;35.40;19.77;;;;;;;20.98;70.34;101153.78;4954846;28;20037;-52
2021/07/27 08:36:45;;;;;;;31.35;19.52;;;;;;;20.96;69.51;101152.13;4946883;28;20756;-48
2021/07/27 08:39:10;;;;;;;31.83;19.77;;;;;;;20.89;70.07;101150.53;4949874;28;20853;-49
2021/07/27 08:41:37;;;;;;;32.38;19.98;;;;;;;20.88;71.07;101154.94;4947768;28;20394;-52
2021/07/27 08:44:05;;;;;;;36.88;21.40;;;;;;;20.75;73.07;101163.22;4950740;28;20038;-49
2021/07/27 08:46:30;;;;;;;36.60;20.35;;;;;;;20.78;70.78;101158.75;4946922;28;20114;-51
2021/07/27 08:48:57;;;;;;;35.70;20.23;;;;;;;20.92;70.99;101153.09;4949339;28;20052;-49
2021/07/27 08:51:23;;;;;;;31.20;19.08;;;;;;;20.88;69.96;101156.72;4949680;28;20042;-49
2021/07/27 08:53:49;;;;;;;30.45;18.73;;;;;;;21.00;70.34;101159.94;4965436;28;20050;-50
2021/07/27 08:56:15;;;;;;;35.35;19.02;;;;;;;20.93;71.11;101160.13;4948748;28;20484;-49
2021/07/27 08:58:40;;;;;;;36.65;19.40;;;;;;;20.88;70.22;101160.25;4951947;28;20027;-52
2021/07/27 09:01:05;;;;;;;34.47;18.73;;;;;;;20.89;70.77;101169.94;4950986;28;20158;-51
2021/07/27 09:03:31;;;;;;;33.72;18.83;;;;;;;20.96;72.24;101163.59;4952544;28;20102;-50
2021/07/27 09:06:04;;;;;;;32.90;18.48;;;;;;;21.20;70.45;101169.22;4947423;28;20031;-52
2021/07/27 09:08:30;;;;;;;28.10;18.77;;;;;;;21.36;68.51;101162.59;4951255;28;20069;-51
2021/07/27 09:10:59;;;;;;;30.17;18.88;;;;;;;21.29;69.15;101167.19;4933841;28;20476;-50
2021/07/27 09:13:30;;;;;;;29.48;18.58;;;;;;;21.25;70.10;101162.88;4947380;28;20735;-49
2021/07/27 09:15:57;;;;;;;30.95;19.58;;;;;;;21.15;71.33;101172.00;4951383;28;20898;-50
2021/07/27 09:18:22;;;;;;;30.55;19.48;;;;;;;21.05;72.14;101171.28;4951050;28;20030;-49
2021/07/27 09:20:50;;;;;;;36.90;20.75;;;;;;;21.00;70.97;101172.31;4949719;28;20514;-48
2021/07/27 09:23:16;;;;;;;35.95;21.52;;;;;;;20.78;71.66;101174.63;4947538;28;20032;-50
2021/07/27 09:25:44;;;;;;;34.40;22.13;;;;;;;20.52;72.17;101177.00;4948931;28;20530;-52
2021/07/27 09:28:10;;;;;;;39.13;23.60;;;;;;;20.33;73.80;101186.25;4944361;28;20039;-48
2021/07/27 09:30:37;;;;;;;40.55;24.20;;;;;;;20.09;75.88;101183.22;4943788;28;20621;-50
2021/07/27 09:33:04;;;;;;;39.63;24.35;;;;;;;19.88;76.83;101188.94;4945225;28;20035;-50
2021/07/27 09:35:29;;;;;;;39.65;23.92;;;;;;;19.70;77.93;101192.78;4948702;28;20019;-49
2021/07/27 09:38:12;;;;;;;44.17;24.95;;;;;;;19.46;79.56;101195.91;4945899;28;20022;-49
2021/07/27 09:40:52;;;;;;;37.90;22.63;;;;;;;19.38;79.88;101205.72;4950970;28;20023;-47
2021/07/27 09:43:20;;;;;;;38.72;22.48;;;;;;;19.14;80.92;101211.44;4945732;28;20096;-49
2021/07/27 09:45:47;;;;;;;33.85;19.63;;;;;;;18.94;81.24;101204.69;4946511;28;20118;-53
2021/07/27 09:48:17;;;;;;;25.42;15.85;;;;;;;19.02;81.50;101209.84;4947451;28;20447;-48
2021/07/27 09:50:47;;;;;;;25.83;14.35;;;;;;;19.15;80.62;101200.81;4948186;28;20031;-47
2021/07/27 09:53:13;;;;;;;21.17;10.02;;;;;;;19.33;79.21;101211.06;4949575;28;20320;-48
2021/07/27 09:55:39;;;;;;;17.55;9.20;;;;;;;19.59;78.92;101196.53;4942674;28;20101;-52
2021/07/27 09:58:05;;;;;;;17.55;9.30;;;;;;;20.00;77.55;101209.00;4947284;28;20423;-51
2021/07/27 10:00:30;;;;;;;18.05;9.52;;;;;;;20.31;76.56;101211.91;4947164;28;20390;-50
2021/07/27 10:02:56;;;;;;;19.13;8.90;;;;;;;20.47;76.32;101211.56;4947485;28;20031;-51
2021/07/27 10:05:23;;;;;;;14.07;8.05;;;;;;;20.72;74.77;101217.19;4944640;28;20466;-48
2021/07/27 10:07:55;;;;;;;18.77;8.25;;;;;;;21.02;76.26;101211.16;4953199;28;20129;-52
2021/07/27 10:10:36;;;;;;;19.90;6.65;;;;;;;21.02;72.85;101197.91;4951558;28;21193;-47
2021/07/27 10:13:13;;;;;;;18.60;6.80;;;;;;;21.08;73.34;101196.00;4948709;28;20092;-47
2021/07/27 10:15:45;;;;;;;12.60;6.53;;;;;;;20.99;75.53;101197.97;4953938;28;20582;-48
2021/07/27 10:18:12;;;;;;;20.63;6.10;;;;;;;21.28;72.14;101199.94;4949392;28;20410;-51
2021/07/27 10:20:37;;;;;;;13.32;5.70;;;;;;;21.11;74.35;101209.16;4952867;28;20030;-50
2021/07/27 10:23:15;;;;;;;14.52;5.57;;;;;;;21.09;71.18;101205.69;4952613;28;20039;-52
2021/07/27 10:25:52;;;;;;;16.73;5.55;;;;;;;20.93;73.09;101214.00;4950491;28;20058;-50
2021/07/27 10:28:22;;;;;;;12.48;5.38;;;;;;;20.85;72.35;101218.63;4951229;28;20031;-53
2021/07/27 10:30:47;;;;;;;15.98;5.25;;;;;;;20.74;72.69;101217.16;4951870;28;20393;-50
2021/07/27 10:33:13;;;;;;;18.63;5.30;;;;;;;20.58;72.33;101217.47;4936163;28;20740;-49
2021/07/27 10:35:38;;;;;;;17.20;5.47;;;;;;;20.39;73.54;101207.31;4953061;28;20034;-49
2021/07/27 10:38:11;;;;;;;17.77;5.53;;;;;;;20.16;73.45;101210.41;4950406;28;20030;-49
2021/07/27 10:40:37;;;;;;;15.50;5.67;;;;;;;19.86;77.88;101206.63;4946961;28;20035;-49
2021/07/27 10:43:03;;;;;;;16.40;5.25;;;;;;;19.78;76.23;101204.13;4948555;28;20546;-49
2021/07/27 10:45:29;;;;;;;17.02;4.78;;;;;;;19.79;75.37;101194.41;4946756;28;21330;-49
2021/07/27 10:47:55;;;;;;;17.60;4.82;;;;;;;19.66;77.38;101196.41;4933595;28;20085;-53
2021/07/27 10:50:28;;;;;;;13.32;4.43;;;;;;;19.62;76.23;101199.16;4946065;28;20820;-53
2021/07/27 10:53:00;;;;;;;12.95;4.40;;;;;;;19.64;75.76;101192.91;4964553;28;20125;-47
2021/07/27 10:55:27;;;;;;;17.83;4.45;;;;;;;19.61;76.91;101186.81;4946881;28;20046;-49
2021/07/27 10:57:55;;;;;;;16.02;4.50;;;;;;;19.58;77.60;101186.91;4946318;28;20050;-50
2021/07/27 11:00:29;;;;;;;16.00;4.43;;;;;;;19.70;77.27;101186.66;4949387;28;20035;-51
2021/07/27 11:02:56;;;;;;;13.80;3.95;;;;;;;19.90;77.65;101189.78;4950211;28;20773;-47
2021/07/27 11:05:25;;;;;;;11.40;3.90;;;;;;;20.14;75.75;101186.63;4951538;28;20487;-51
2021/07/27 11:07:51;;;;;;;14.73;4.20;;;;;;;20.38;76.75;101187.91;4949930;28;20058;-47
2021/07/27 11:10:22;;;;;;;13.80;4.28;;;;;;;20.65;75.22;101181.13;4948754;28;20118;-49
2021/07/27 11:12:48;;;;;;;13.13;3.85;;;;;;;20.96;74.31;101176.84;4949404;28;20472;-49
2021/07/27 11:15:23;;;;;;;10.38;3.75;;;;;;;21.23;71.17;101174.41;4947396;28;20015;-48
2021/07/27 11:18:02;;;;;;;9.70;3.78;;;;;;;21.47;71.15;101178.25;4949727;28;20035;-46
2021/07/27 11:20:38;;;;;;;12.98;3.78;;;;;;;21.79;70.56;101179.09;4948958;28;20515;-50
2021/07/27 11:23:13;;;;;;;10.45;3.47;;;;;;;22.18;70.18;101171.81;4972171;28;20699;-48
2021/07/27 11:25:38;;;;;;;10.10;3.90;;;;;;;22.22;68.25;101173.44;4963258;28;20130;-48
2021/07/27 11:28:14;;;;;;;11.85;4.28;;;;;;;22.26;67.33;101179.56;4945797;28;20031;-48